sensor_id;sensor_type;location;lat;lon;timestamp;P1;durP1;ratioP1;P2;durP2;ratioP2
15317;SDS011;7759;52.528;13.346;2023-07-28T00:01:04;1.20;;;1.05;;
15317;SDS011;7759;52.528;13.346;2023-07-28T00:03:30;1.10;;;0.80;;
15317;SDS011;7759;52.528;13.346;2023-07-28T00:05:57;0.95;;;0.90;;
15317;SDS011;7759;52.528;13.346;2023-07-28T00:08:23;0.70;;;0.70;;
15317;SDS011;7759;52.528;13.346;2023-07-28T00:10:49;1.63;;;1.00;;
15317;SDS011;7759;52.528;13.346;2023-07-28T00:13:15;0.70;;;0.70;;
15317;SDS011;7759;52.528;13.346;2023-07-28T00:15:41;1.98;;;1.00;;
15317;SDS011;7759;52.528;13.346;2023-07-28T00:18:07;1.77;;;0.98;;
15317;SDS011;7759;52.528;13.346;2023-07-28T00:20:33;0.80;;;0.80;;
15317;SDS011;7759;52.528;13.346;2023-07-28T00:22:59;0.90;;;0.90;;
15317;SDS011;7759;52.528;13.346;2023-07-28T00:25:25;1.02;;;0.88;;
15317;SDS011;7759;52.528;13.346;2023-07-28T00:27:51;2.92;;;1.00;;
15317;SDS011;7759;52.528;13.346;2023-07-28T00:30:18;1.65;;;1.25;;
15317;SDS011;7759;52.528;13.346;2023-07-28T00:32:44;1.83;;;1.17;;
15317;SDS011;7759;52.528;13.346;2023-07-28T00:35:10;1.65;;;1.30;;
15317;SDS011;7759;52.528;13.346;2023-07-28T00:37:37;1.50;;;1.33;;
15317;SDS011;7759;52.528;13.346;2023-07-28T00:40:04;0.90;;;0.90;;
15317;SDS011;7759;52.528;13.346;2023-07-28T00:42:30;1.77;;;1.30;;
15317;SDS011;7759;52.528;13.346;2023-07-28T00:44:55;1.85;;;1.70;;
15317;SDS011;7759;52.528;13.346;2023-07-28T00:47:21;1.95;;;1.70;;
15317;SDS011;7759;52.528;13.346;2023-07-28T00:49:47;2.42;;;1.58;;
15317;SDS011;7759;52.528;13.346;2023-07-28T00:52:13;1.48;;;1.17;;
15317;SDS011;7759;52.528;13.346;2023-07-28T00:54:39;1.58;;;1.20;;
15317;SDS011;7759;52.528;13.346;2023-07-28T00:57:05;2.50;;;1.25;;
15317;SDS011;7759;52.528;13.346;2023-07-28T00:59:32;4.05;;;1.35;;
15317;SDS011;7759;52.528;13.346;2023-07-28T01:01:58;1.17;;;1.08;;
15317;SDS011;7759;52.528;13.346;2023-07-28T01:04:24;1.45;;;1.20;;
15317;SDS011;7759;52.528;13.346;2023-07-28T01:06:57;0.98;;;0.98;;
15317;SDS011;7759;52.528;13.346;2023-07-28T01:09:38;1.90;;;1.38;;
15317;SDS011;7759;52.528;13.346;2023-07-28T01:12:07;1.05;;;1.00;;
15317;SDS011;7759;52.528;13.346;2023-07-28T01:14:34;2.47;;;1.38;;
15317;SDS011;7759;52.528;13.346;2023-07-28T01:17:00;1.27;;;1.17;;
15317;SDS011;7759;52.528;13.346;2023-07-28T01:19:26;1.17;;;1.08;;
15317;SDS011;7759;52.528;13.346;2023-07-28T01:21:54;1.67;;;1.02;;
15317;SDS011;7759;52.528;13.346;2023-07-28T01:24:37;1.30;;;1.10;;
15317;SDS011;7759;52.528;13.346;2023-07-28T01:27:08;1.67;;;1.15;;
15317;SDS011;7759;52.528;13.346;2023-07-28T01:29:34;1.52;;;0.88;;
15317;SDS011;7759;52.528;13.346;2023-07-28T01:32:01;1.00;;;0.90;;
15317;SDS011;7759;52.528;13.346;2023-07-28T01:34:26;2.65;;;1.15;;
15317;SDS011;7759;52.528;13.346;2023-07-28T01:36:52;0.95;;;0.80;;
15317;SDS011;7759;52.528;13.346;2023-07-28T01:39:18;1.13;;;1.02;;
15317;SDS011;7759;52.528;13.346;2023-07-28T01:41:44;1.48;;;1.23;;
15317;SDS011;7759;52.528;13.346;2023-07-28T01:44:10;1.17;;;1.08;;
15317;SDS011;7759;52.528;13.346;2023-07-28T01:46:36;1.92;;;1.25;;
15317;SDS011;7759;52.528;13.346;2023-07-28T01:49:02;1.25;;;1.00;;
15317;SDS011;7759;52.528;13.346;2023-07-28T01:51:28;1.80;;;1.30;;
15317;SDS011;7759;52.528;13.346;2023-07-28T01:53:54;2.63;;;1.20;;
15317;SDS011;7759;52.528;13.346;2023-07-28T01:56:20;1.38;;;1.27;;
15317;SDS011;7759;52.528;13.346;2023-07-28T01:58:45;1.55;;;1.30;;
15317;SDS011;7759;52.528;13.346;2023-07-28T02:01:14;1.63;;;1.52;;
15317;SDS011;7759;52.528;13.346;2023-07-28T02:03:41;3.15;;;1.42;;
15317;SDS011;7759;52.528;13.346;2023-07-28T02:06:07;1.50;;;1.40;;
15317;SDS011;7759;52.528;13.346;2023-07-28T02:08:32;1.60;;;1.30;;
15317;SDS011;7759;52.528;13.346;2023-07-28T02:10:59;1.58;;;1.48;;
15317;SDS011;7759;52.528;13.346;2023-07-28T02:13:24;1.67;;;1.30;;
15317;SDS011;7759;52.528;13.346;2023-07-28T02:15:50;2.15;;;1.40;;
15317;SDS011;7759;52.528;13.346;2023-07-28T02:18:16;1.25;;;1.10;;
15317;SDS011;7759;52.528;13.346;2023-07-28T02:20:42;1.38;;;1.27;;
15317;SDS011;7759;52.528;13.346;2023-07-28T02:23:08;1.35;;;1.25;;
15317;SDS011;7759;52.528;13.346;2023-07-28T02:25:34;2.50;;;1.55;;
15317;SDS011;7759;52.528;13.346;2023-07-28T02:28:00;1.38;;;1.25;;
15317;SDS011;7759;52.528;13.346;2023-07-28T02:30:26;2.42;;;1.58;;
15317;SDS011;7759;52.528;13.346;2023-07-28T02:32:52;1.95;;;1.38;;
15317;SDS011;7759;52.528;13.346;2023-07-28T02:35:18;1.85;;;1.75;;
15317;SDS011;7759;52.528;13.346;2023-07-28T02:37:44;1.92;;;1.73;;
15317;SDS011;7759;52.528;13.346;2023-07-28T02:40:10;2.58;;;2.15;;
15317;SDS011;7759;52.528;13.346;2023-07-28T02:42:36;2.47;;;2.00;;
15317;SDS011;7759;52.528;13.346;2023-07-28T02:45:02;2.17;;;1.98;;
15317;SDS011;7759;52.528;13.346;2023-07-28T02:47:28;2.58;;;1.83;;
15317;SDS011;7759;52.528;13.346;2023-07-28T02:49:54;2.13;;;1.77;;
15317;SDS011;7759;52.528;13.346;2023-07-28T02:52:20;3.90;;;2.80;;
15317;SDS011;7759;52.528;13.346;2023-07-28T02:54:46;2.50;;;1.70;;
15317;SDS011;7759;52.528;13.346;2023-07-28T02:57:12;2.05;;;1.85;;
15317;SDS011;7759;52.528;13.346;2023-07-28T02:59:37;2.72;;;2.15;;
15317;SDS011;7759;52.528;13.346;2023-07-28T03:02:03;2.10;;;1.77;;
15317;SDS011;7759;52.528;13.346;2023-07-28T03:04:30;3.08;;;2.50;;
15317;SDS011;7759;52.528;13.346;2023-07-28T03:06:55;3.10;;;2.67;;
15317;SDS011;7759;52.528;13.346;2023-07-28T03:09:21;1.95;;;1.77;;
15317;SDS011;7759;52.528;13.346;2023-07-28T03:11:48;2.13;;;1.85;;
15317;SDS011;7759;52.528;13.346;2023-07-28T03:14:13;2.58;;;2.38;;
15317;SDS011;7759;52.528;13.346;2023-07-28T03:16:40;2.17;;;1.98;;
15317;SDS011;7759;52.528;13.346;2023-07-28T03:19:06;2.35;;;2.10;;
15317;SDS011;7759;52.528;13.346;2023-07-28T03:21:32;2.17;;;1.60;;
15317;SDS011;7759;52.528;13.346;2023-07-28T03:23:58;2.97;;;1.65;;
15317;SDS011;7759;52.528;13.346;2023-07-28T03:26:24;2.40;;;2.20;;
15317;SDS011;7759;52.528;13.346;2023-07-28T03:28:50;3.10;;;1.58;;
15317;SDS011;7759;52.528;13.346;2023-07-28T03:31:16;3.20;;;1.80;;
15317;SDS011;7759;52.528;13.346;2023-07-28T03:33:42;1.50;;;1.40;;
15317;SDS011;7759;52.528;13.346;2023-07-28T03:36:08;3.13;;;1.63;;
15317;SDS011;7759;52.528;13.346;2023-07-28T03:38:34;2.33;;;1.80;;
15317;SDS011;7759;52.528;13.346;2023-07-28T03:40:59;1.70;;;1.52;;
15317;SDS011;7759;52.528;13.346;2023-07-28T03:43:25;1.83;;;1.67;;
15317;SDS011;7759;52.528;13.346;2023-07-28T03:45:51;2.15;;;1.92;;
15317;SDS011;7759;52.528;13.346;2023-07-28T03:48:17;2.10;;;1.90;;
15317;SDS011;7759;52.528;13.346;2023-07-28T03:50:43;5.45;;;2.42;;
15317;SDS011;7759;52.528;13.346;2023-07-28T03:53:09;3.35;;;2.60;;
15317;SDS011;7759;52.528;13.346;2023-07-28T03:55:35;1.65;;;1.52;;
15317;SDS011;7759;52.528;13.346;2023-07-28T03:58:01;5.13;;;2.30;;
15317;SDS011;7759;52.528;13.346;2023-07-28T04:00:28;2.08;;;1.85;;
15317;SDS011;7759;52.528;13.346;2023-07-28T04:02:55;3.53;;;1.95;;
15317;SDS011;7759;52.528;13.346;2023-07-28T04:05:20;2.25;;;2.00;;
15317;SDS011;7759;52.528;13.346;2023-07-28T04:07:46;4.53;;;2.13;;
15317;SDS011;7759;52.528;13.346;2023-07-28T04:10:12;3.17;;;2.20;;
15317;SDS011;7759;52.528;13.346;2023-07-28T04:12:38;2.17;;;1.98;;
15317;SDS011;7759;52.528;13.346;2023-07-28T04:15:04;2.50;;;2.30;;
15317;SDS011;7759;52.528;13.346;2023-07-28T04:17:30;3.08;;;2.60;;
15317;SDS011;7759;52.528;13.346;2023-07-28T04:19:56;2.60;;;2.22;;
15317;SDS011;7759;52.528;13.346;2023-07-28T04:22:22;3.15;;;2.67;;
15317;SDS011;7759;52.528;13.346;2023-07-28T04:24:48;3.53;;;2.30;;
15317;SDS011;7759;52.528;13.346;2023-07-28T04:27:14;3.05;;;2.50;;
15317;SDS011;7759;52.528;13.346;2023-07-28T04:29:40;4.15;;;2.85;;
15317;SDS011;7759;52.528;13.346;2023-07-28T04:32:06;3.50;;;2.28;;
15317;SDS011;7759;52.528;13.346;2023-07-28T04:34:33;2.47;;;2.22;;
15317;SDS011;7759;52.528;13.346;2023-07-28T04:36:59;3.33;;;2.45;;
15317;SDS011;7759;52.528;13.346;2023-07-28T04:39:25;2.35;;;2.00;;
15317;SDS011;7759;52.528;13.346;2023-07-28T04:41:51;2.10;;;1.88;;
15317;SDS011;7759;52.528;13.346;2023-07-28T04:44:17;1.90;;;1.70;;
15317;SDS011;7759;52.528;13.346;2023-07-28T04:46:44;2.10;;;1.90;;
15317;SDS011;7759;52.528;13.346;2023-07-28T04:49:12;2.55;;;2.10;;
15317;SDS011;7759;52.528;13.346;2023-07-28T04:51:38;2.03;;;1.90;;
15317;SDS011;7759;52.528;13.346;2023-07-28T04:54:04;2.50;;;2.10;;
15317;SDS011;7759;52.528;13.346;2023-07-28T04:56:31;4.75;;;2.22;;
15317;SDS011;7759;52.528;13.346;2023-07-28T04:58:57;1.65;;;1.55;;
15317;SDS011;7759;52.528;13.346;2023-07-28T05:01:24;3.30;;;1.90;;
15317;SDS011;7759;52.528;13.346;2023-07-28T05:03:50;2.10;;;1.90;;
15317;SDS011;7759;52.528;13.346;2023-07-28T05:06:16;3.63;;;2.30;;
15317;SDS011;7759;52.528;13.346;2023-07-28T05:08:42;3.47;;;1.90;;
15317;SDS011;7759;52.528;13.346;2023-07-28T05:11:08;2.80;;;2.08;;
15317;SDS011;7759;52.528;13.346;2023-07-28T05:13:34;2.35;;;1.90;;
15317;SDS011;7759;52.528;13.346;2023-07-28T05:16:00;3.28;;;2.28;;
15317;SDS011;7759;52.528;13.346;2023-07-28T05:18:26;2.00;;;1.80;;
15317;SDS011;7759;52.528;13.346;2023-07-28T05:20:52;3.25;;;2.25;;
15317;SDS011;7759;52.528;13.346;2023-07-28T05:23:17;1.60;;;1.50;;
15317;SDS011;7759;52.528;13.346;2023-07-28T05:25:43;3.20;;;2.35;;
15317;SDS011;7759;52.528;13.346;2023-07-28T05:28:09;2.10;;;1.85;;
15317;SDS011;7759;52.528;13.346;2023-07-28T05:30:35;2.30;;;2.10;;
15317;SDS011;7759;52.528;13.346;2023-07-28T05:33:01;2.15;;;1.90;;
15317;SDS011;7759;52.528;13.346;2023-07-28T05:35:27;2.22;;;1.85;;
15317;SDS011;7759;52.528;13.346;2023-07-28T05:37:53;2.05;;;1.85;;
15317;SDS011;7759;52.528;13.346;2023-07-28T05:40:19;2.63;;;2.03;;
15317;SDS011;7759;52.528;13.346;2023-07-28T05:42:45;2.15;;;1.92;;
15317;SDS011;7759;52.528;13.346;2023-07-28T05:45:11;5.75;;;2.30;;
15317;SDS011;7759;52.528;13.346;2023-07-28T05:47:37;3.55;;;2.25;;
15317;SDS011;7759;52.528;13.346;2023-07-28T05:50:03;2.25;;;2.05;;
15317;SDS011;7759;52.528;13.346;2023-07-28T05:52:30;3.03;;;2.72;;
15317;SDS011;7759;52.528;13.346;2023-07-28T05:54:56;2.60;;;2.28;;
15317;SDS011;7759;52.528;13.346;2023-07-28T05:57:22;2.20;;;2.00;;
15317;SDS011;7759;52.528;13.346;2023-07-28T05:59:48;1.60;;;1.50;;
15317;SDS011;7759;52.528;13.346;2023-07-28T06:02:14;2.95;;;1.83;;
15317;SDS011;7759;52.528;13.346;2023-07-28T06:04:40;4.13;;;2.33;;
15317;SDS011;7759;52.528;13.346;2023-07-28T06:07:06;4.28;;;2.40;;
15317;SDS011;7759;52.528;13.346;2023-07-28T06:09:32;2.50;;;2.30;;
15317;SDS011;7759;52.528;13.346;2023-07-28T06:11:58;2.92;;;2.60;;
15317;SDS011;7759;52.528;13.346;2023-07-28T06:14:24;2.25;;;2.05;;
15317;SDS011;7759;52.528;13.346;2023-07-28T06:16:50;3.28;;;2.67;;
15317;SDS011;7759;52.528;13.346;2023-07-28T06:19:17;3.40;;;2.28;;
15317;SDS011;7759;52.528;13.346;2023-07-28T06:21:48;2.33;;;2.13;;
15317;SDS011;7759;52.528;13.346;2023-07-28T06:24:14;3.10;;;2.35;;
15317;SDS011;7759;52.528;13.346;2023-07-28T06:26:40;2.42;;;2.22;;
15317;SDS011;7759;52.528;13.346;2023-07-28T06:29:07;2.50;;;2.30;;
15317;SDS011;7759;52.528;13.346;2023-07-28T06:31:33;3.03;;;2.50;;
15317;SDS011;7759;52.528;13.346;2023-07-28T06:33:59;2.80;;;2.58;;
15317;SDS011;7759;52.528;13.346;2023-07-28T06:36:25;2.58;;;2.35;;
15317;SDS011;7759;52.528;13.346;2023-07-28T06:38:52;2.30;;;1.98;;
15317;SDS011;7759;52.528;13.346;2023-07-28T06:41:20;3.13;;;2.40;;
15317;SDS011;7759;52.528;13.346;2023-07-28T06:43:46;4.70;;;2.10;;
15317;SDS011;7759;52.528;13.346;2023-07-28T06:46:13;3.03;;;2.35;;
15317;SDS011;7759;52.528;13.346;2023-07-28T06:48:39;2.22;;;1.75;;
15317;SDS011;7759;52.528;13.346;2023-07-28T06:51:05;3.22;;;2.20;;
15317;SDS011;7759;52.528;13.346;2023-07-28T06:53:31;3.80;;;2.28;;
15317;SDS011;7759;52.528;13.346;2023-07-28T06:55:57;2.20;;;2.00;;
15317;SDS011;7759;52.528;13.346;2023-07-28T06:58:23;2.00;;;1.80;;
15317;SDS011;7759;52.528;13.346;2023-07-28T07:00:49;2.30;;;2.10;;
15317;SDS011;7759;52.528;13.346;2023-07-28T07:03:15;1.83;;;1.58;;
15317;SDS011;7759;52.528;13.346;2023-07-28T07:05:42;3.58;;;1.95;;
15317;SDS011;7759;52.528;13.346;2023-07-28T07:08:08;2.30;;;2.10;;
15317;SDS011;7759;52.528;13.346;2023-07-28T07:10:34;1.77;;;1.55;;
15317;SDS011;7759;52.528;13.346;2023-07-28T07:13:00;4.00;;;1.98;;
15317;SDS011;7759;52.528;13.346;2023-07-28T07:15:26;3.00;;;1.58;;
15317;SDS011;7759;52.528;13.346;2023-07-28T07:17:52;3.50;;;1.58;;
15317;SDS011;7759;52.528;13.346;2023-07-28T07:20:18;3.40;;;1.70;;
15317;SDS011;7759;52.528;13.346;2023-07-28T07:22:44;1.60;;;1.50;;
15317;SDS011;7759;52.528;13.346;2023-07-28T07:25:10;1.45;;;1.35;;
15317;SDS011;7759;52.528;13.346;2023-07-28T07:27:36;5.68;;;1.58;;
15317;SDS011;7759;52.528;13.346;2023-07-28T07:30:02;1.77;;;1.58;;
15317;SDS011;7759;52.528;13.346;2023-07-28T07:32:29;1.70;;;1.23;;
15317;SDS011;7759;52.528;13.346;2023-07-28T07:34:55;1.30;;;1.20;;
15317;SDS011;7759;52.528;13.346;2023-07-28T07:37:20;1.25;;;1.15;;
15317;SDS011;7759;52.528;13.346;2023-07-28T07:39:46;1.80;;;1.42;;
15317;SDS011;7759;52.528;13.346;2023-07-28T07:42:12;2.88;;;1.80;;
15317;SDS011;7759;52.528;13.346;2023-07-28T07:44:39;2.60;;;1.50;;
15317;SDS011;7759;52.528;13.346;2023-07-28T07:47:15;2.25;;;1.30;;
15317;SDS011;7759;52.528;13.346;2023-07-28T07:49:41;1.27;;;1.17;;
15317;SDS011;7759;52.528;13.346;2023-07-28T07:52:07;1.52;;;1.35;;
15317;SDS011;7759;52.528;13.346;2023-07-28T07:54:36;2.70;;;1.23;;
15317;SDS011;7759;52.528;13.346;2023-07-28T07:57:02;1.50;;;1.40;;
15317;SDS011;7759;52.528;13.346;2023-07-28T07:59:28;1.02;;;1.00;;
15317;SDS011;7759;52.528;13.346;2023-07-28T08:01:57;1.33;;;1.23;;
15317;SDS011;7759;52.528;13.346;2023-07-28T08:04:25;1.23;;;1.13;;
15317;SDS011;7759;52.528;13.346;2023-07-28T08:06:52;1.13;;;1.10;;
15317;SDS011;7759;52.528;13.346;2023-07-28T08:09:19;1.50;;;1.02;;
15317;SDS011;7759;52.528;13.346;2023-07-28T08:11:44;2.05;;;1.20;;
15317;SDS011;7759;52.528;13.346;2023-07-28T08:14:10;1.27;;;0.95;;
15317;SDS011;7759;52.528;13.346;2023-07-28T08:16:36;1.35;;;0.95;;
15317;SDS011;7759;52.528;13.346;2023-07-28T08:19:02;1.45;;;1.13;;
15317;SDS011;7759;52.528;13.346;2023-07-28T08:21:29;1.33;;;1.23;;
15317;SDS011;7759;52.528;13.346;2023-07-28T08:23:56;1.60;;;1.10;;
15317;SDS011;7759;52.528;13.346;2023-07-28T08:26:22;1.02;;;1.02;;
15317;SDS011;7759;52.528;13.346;2023-07-28T08:28:48;1.77;;;1.30;;
15317;SDS011;7759;52.528;13.346;2023-07-28T08:31:14;1.00;;;1.00;;
15317;SDS011;7759;52.528;13.346;2023-07-28T08:33:40;1.13;;;1.00;;
15317;SDS011;7759;52.528;13.346;2023-07-28T08:36:05;1.20;;;1.10;;
15317;SDS011;7759;52.528;13.346;2023-07-28T08:38:31;1.15;;;1.05;;
15317;SDS011;7759;52.528;13.346;2023-07-28T08:40:57;1.73;;;1.35;;
15317;SDS011;7759;52.528;13.346;2023-07-28T08:43:23;1.05;;;1.05;;
15317;SDS011;7759;52.528;13.346;2023-07-28T08:45:50;1.15;;;1.13;;
15317;SDS011;7759;52.528;13.346;2023-07-28T08:48:17;1.20;;;1.10;;
15317;SDS011;7759;52.528;13.346;2023-07-28T08:50:43;1.20;;;1.10;;
15317;SDS011;7759;52.528;13.346;2023-07-28T08:53:09;1.45;;;1.10;;
15317;SDS011;7759;52.528;13.346;2023-07-28T08:55:35;0.90;;;0.80;;
15317;SDS011;7759;52.528;13.346;2023-07-28T09:01:00;0.93;;;0.93;;
15317;SDS011;7759;52.528;13.346;2023-07-28T09:03:26;1.20;;;1.10;;
15317;SDS011;7759;52.528;13.346;2023-07-28T09:05:54;0.98;;;0.98;;
15317;SDS011;7759;52.528;13.346;2023-07-28T09:08:24;0.90;;;0.90;;
15317;SDS011;7759;52.528;13.346;2023-07-28T09:10:50;1.00;;;1.00;;
15317;SDS011;7759;52.528;13.346;2023-07-28T09:13:22;1.13;;;1.00;;
15317;SDS011;7759;52.528;13.346;2023-07-28T09:15:48;1.05;;;0.98;;
15317;SDS011;7759;52.528;13.346;2023-07-28T09:18:15;0.90;;;0.90;;
15317;SDS011;7759;52.528;13.346;2023-07-28T09:20:42;1.00;;;0.90;;
15317;SDS011;7759;52.528;13.346;2023-07-28T09:23:09;1.10;;;1.10;;
15317;SDS011;7759;52.528;13.346;2023-07-28T09:25:35;1.58;;;1.20;;
15317;SDS011;7759;52.528;13.346;2023-07-28T09:28:01;1.15;;;1.05;;
15317;SDS011;7759;52.528;13.346;2023-07-28T09:30:42;2.25;;;1.20;;
15317;SDS011;7759;52.528;13.346;2023-07-28T09:33:08;1.02;;;1.02;;
15317;SDS011;7759;52.528;13.346;2023-07-28T09:35:34;1.20;;;1.10;;
15317;SDS011;7759;52.528;13.346;2023-07-28T09:37:59;2.70;;;1.40;;
15317;SDS011;7759;52.528;13.346;2023-07-28T09:40:26;1.35;;;1.25;;
15317;SDS011;7759;52.528;13.346;2023-07-28T09:42:52;1.70;;;1.00;;
15317;SDS011;7759;52.528;13.346;2023-07-28T09:45:19;1.40;;;1.30;;
15317;SDS011;7759;52.528;13.346;2023-07-28T09:47:47;0.95;;;0.90;;
15317;SDS011;7759;52.528;13.346;2023-07-28T09:50:14;1.45;;;1.30;;
15317;SDS011;7759;52.528;13.346;2023-07-28T09:52:47;1.35;;;1.00;;
15317;SDS011;7759;52.528;13.346;2023-07-28T09:55:15;1.33;;;1.23;;
15317;SDS011;7759;52.528;13.346;2023-07-28T09:57:45;1.17;;;0.90;;
15317;SDS011;7759;52.528;13.346;2023-07-28T10:00:13;1.60;;;1.42;;
15317;SDS011;7759;52.528;13.346;2023-07-28T10:02:39;1.63;;;1.52;;
15317;SDS011;7759;52.528;13.346;2023-07-28T10:05:06;1.55;;;1.45;;
15317;SDS011;7759;52.528;13.346;2023-07-28T10:07:33;3.80;;;1.55;;
15317;SDS011;7759;52.528;13.346;2023-07-28T10:09:59;1.88;;;1.50;;
15317;SDS011;7759;52.528;13.346;2023-07-28T10:12:26;1.77;;;1.67;;
15317;SDS011;7759;52.528;13.346;2023-07-28T10:15:01;1.60;;;1.50;;
15317;SDS011;7759;52.528;13.346;2023-07-28T10:17:32;1.40;;;1.30;;
15317;SDS011;7759;52.528;13.346;2023-07-28T10:20:05;1.50;;;1.40;;
15317;SDS011;7759;52.528;13.346;2023-07-28T10:22:34;2.13;;;1.88;;
15317;SDS011;7759;52.528;13.346;2023-07-28T10:25:08;1.50;;;1.35;;
15317;SDS011;7759;52.528;13.346;2023-07-28T10:27:38;1.40;;;1.30;;
15317;SDS011;7759;52.528;13.346;2023-07-28T10:30:10;2.72;;;1.50;;
15317;SDS011;7759;52.528;13.346;2023-07-28T10:32:43;1.83;;;1.35;;
15317;SDS011;7759;52.528;13.346;2023-07-28T10:35:19;1.70;;;1.58;;
15317;SDS011;7759;52.528;13.346;2023-07-28T10:37:47;1.40;;;1.30;;
15317;SDS011;7759;52.528;13.346;2023-07-28T10:43:00;1.50;;;1.40;;
15317;SDS011;7759;52.528;13.346;2023-07-28T10:45:27;1.83;;;1.40;;
15317;SDS011;7759;52.528;13.346;2023-07-28T10:47:54;1.40;;;1.30;;
15317;SDS011;7759;52.528;13.346;2023-07-28T10:50:21;1.40;;;1.30;;
15317;SDS011;7759;52.528;13.346;2023-07-28T10:52:47;1.30;;;1.20;;
15317;SDS011;7759;52.528;13.346;2023-07-28T10:57:40;1.23;;;1.13;;
15317;SDS011;7759;52.528;13.346;2023-07-28T11:00:07;1.13;;;1.02;;
15317;SDS011;7759;52.528;13.346;2023-07-28T11:02:37;1.65;;;1.55;;
15317;SDS011;7759;52.528;13.346;2023-07-28T11:05:09;2.20;;;1.63;;
15317;SDS011;7759;52.528;13.346;2023-07-28T11:07:36;1.90;;;1.65;;
15317;SDS011;7759;52.528;13.346;2023-07-28T11:10:03;1.75;;;1.20;;
15317;SDS011;7759;52.528;13.346;2023-07-28T11:12:31;1.25;;;1.15;;
15317;SDS011;7759;52.528;13.346;2023-07-28T11:14:57;1.42;;;1.00;;
15317;SDS011;7759;52.528;13.346;2023-07-28T11:17:23;4.20;;;1.73;;
15317;SDS011;7759;52.528;13.346;2023-07-28T11:19:50;1.92;;;1.45;;
15317;SDS011;7759;52.528;13.346;2023-07-28T11:22:18;1.85;;;1.50;;
15317;SDS011;7759;52.528;13.346;2023-07-28T11:24:44;1.70;;;1.25;;
15317;SDS011;7759;52.528;13.346;2023-07-28T11:27:10;2.10;;;1.42;;
15317;SDS011;7759;52.528;13.346;2023-07-28T11:29:36;2.75;;;1.80;;
15317;SDS011;7759;52.528;13.346;2023-07-28T11:32:02;1.90;;;1.40;;
15317;SDS011;7759;52.528;13.346;2023-07-28T11:34:29;1.70;;;1.20;;
15317;SDS011;7759;52.528;13.346;2023-07-28T11:36:59;2.80;;;1.70;;
15317;SDS011;7759;52.528;13.346;2023-07-28T11:39:25;2.90;;;1.25;;
15317;SDS011;7759;52.528;13.346;2023-07-28T11:41:51;2.50;;;1.50;;
15317;SDS011;7759;52.528;13.346;2023-07-28T11:44:19;1.40;;;1.30;;
15317;SDS011;7759;52.528;13.346;2023-07-28T11:46:45;1.10;;;1.00;;
15317;SDS011;7759;52.528;13.346;2023-07-28T11:49:13;1.27;;;1.17;;
15317;SDS011;7759;52.528;13.346;2023-07-28T11:51:41;1.10;;;1.00;;
15317;SDS011;7759;52.528;13.346;2023-07-28T11:54:10;1.27;;;1.17;;
15317;SDS011;7759;52.528;13.346;2023-07-28T11:56:36;1.55;;;1.40;;
15317;SDS011;7759;52.528;13.346;2023-07-28T11:59:02;1.38;;;1.27;;
15317;SDS011;7759;52.528;13.346;2023-07-28T12:01:28;1.10;;;1.00;;
15317;SDS011;7759;52.528;13.346;2023-07-28T12:03:54;1.65;;;1.40;;
15317;SDS011;7759;52.528;13.346;2023-07-28T12:06:20;2.10;;;1.33;;
15317;SDS011;7759;52.528;13.346;2023-07-28T12:08:46;1.17;;;1.08;;
15317;SDS011;7759;52.528;13.346;2023-07-28T12:11:13;1.67;;;1.42;;
15317;SDS011;7759;52.528;13.346;2023-07-28T12:13:51;1.45;;;1.33;;
15317;SDS011;7759;52.528;13.346;2023-07-28T12:19:02;1.17;;;0.95;;
15317;SDS011;7759;52.528;13.346;2023-07-28T12:21:29;1.30;;;1.00;;
15317;SDS011;7759;52.528;13.346;2023-07-28T12:23:56;3.53;;;1.17;;
15317;SDS011;7759;52.528;13.346;2023-07-28T12:26:22;1.55;;;1.42;;
15317;SDS011;7759;52.528;13.346;2023-07-28T12:28:48;2.78;;;1.30;;
15317;SDS011;7759;52.528;13.346;2023-07-28T12:31:13;1.25;;;1.15;;
15317;SDS011;7759;52.528;13.346;2023-07-28T12:33:39;2.08;;;1.52;;
15317;SDS011;7759;52.528;13.346;2023-07-28T12:36:05;1.67;;;1.15;;
15317;SDS011;7759;52.528;13.346;2023-07-28T12:38:31;1.40;;;1.20;;
15317;SDS011;7759;52.528;13.346;2023-07-28T12:40:57;1.30;;;1.20;;
15317;SDS011;7759;52.528;13.346;2023-07-28T12:43:23;1.65;;;1.50;;
15317;SDS011;7759;52.528;13.346;2023-07-28T12:45:50;1.30;;;1.10;;
15317;SDS011;7759;52.528;13.346;2023-07-28T12:48:18;3.17;;;1.40;;
15317;SDS011;7759;52.528;13.346;2023-07-28T12:50:44;1.70;;;1.25;;
15317;SDS011;7759;52.528;13.346;2023-07-28T12:53:10;1.13;;;1.00;;
15317;SDS011;7759;52.528;13.346;2023-07-28T12:55:35;3.40;;;1.20;;
15317;SDS011;7759;52.528;13.346;2023-07-28T12:58:02;1.40;;;1.08;;
15317;SDS011;7759;52.528;13.346;2023-07-28T13:00:28;1.83;;;1.65;;
15317;SDS011;7759;52.528;13.346;2023-07-28T13:02:54;1.50;;;1.35;;
15317;SDS011;7759;52.528;13.346;2023-07-28T13:05:20;1.58;;;1.42;;
15317;SDS011;7759;52.528;13.346;2023-07-28T13:07:46;1.80;;;1.48;;
15317;SDS011;7759;52.528;13.346;2023-07-28T13:10:12;1.67;;;1.58;;
15317;SDS011;7759;52.528;13.346;2023-07-28T13:12:38;4.90;;;1.67;;
15317;SDS011;7759;52.528;13.346;2023-07-28T13:15:04;2.50;;;1.77;;
15317;SDS011;7759;52.528;13.346;2023-07-28T13:17:30;1.60;;;1.50;;
15317;SDS011;7759;52.528;13.346;2023-07-28T13:19:56;2.92;;;1.90;;
15317;SDS011;7759;52.528;13.346;2023-07-28T13:22:23;3.80;;;1.88;;
15317;SDS011;7759;52.528;13.346;2023-07-28T13:24:49;2.17;;;1.52;;
15317;SDS011;7759;52.528;13.346;2023-07-28T13:27:14;1.40;;;1.30;;
15317;SDS011;7759;52.528;13.346;2023-07-28T13:29:41;3.08;;;1.52;;
15317;SDS011;7759;52.528;13.346;2023-07-28T13:32:27;1.95;;;1.55;;
15317;SDS011;7759;52.528;13.346;2023-07-28T13:34:53;2.60;;;2.17;;
15317;SDS011;7759;52.528;13.346;2023-07-28T13:37:19;4.15;;;1.67;;
15317;SDS011;7759;52.528;13.346;2023-07-28T13:39:45;2.70;;;1.73;;
15317;SDS011;7759;52.528;13.346;2023-07-28T13:42:11;1.83;;;1.63;;
15317;SDS011;7759;52.528;13.346;2023-07-28T13:44:39;2.35;;;2.13;;
15317;SDS011;7759;52.528;13.346;2023-07-28T13:47:05;1.70;;;1.60;;
15317;SDS011;7759;52.528;13.346;2023-07-28T13:49:31;2.25;;;1.77;;
15317;SDS011;7759;52.528;13.346;2023-07-28T13:52:00;2.08;;;1.60;;
15317;SDS011;7759;52.528;13.346;2023-07-28T13:54:26;2.42;;;2.05;;
15317;SDS011;7759;52.528;13.346;2023-07-28T13:56:52;2.30;;;2.10;;
15317;SDS011;7759;52.528;13.346;2023-07-28T13:59:18;1.90;;;1.80;;
15317;SDS011;7759;52.528;13.346;2023-07-28T14:01:44;1.95;;;1.75;;
15317;SDS011;7759;52.528;13.346;2023-07-28T14:04:10;1.40;;;1.30;;
15317;SDS011;7759;52.528;13.346;2023-07-28T14:06:36;1.70;;;1.45;;
15317;SDS011;7759;52.528;13.346;2023-07-28T14:09:01;1.67;;;1.38;;
15317;SDS011;7759;52.528;13.346;2023-07-28T14:11:27;2.85;;;1.60;;
15317;SDS011;7759;52.528;13.346;2023-07-28T14:13:53;3.13;;;1.67;;
15317;SDS011;7759;52.528;13.346;2023-07-28T14:16:20;3.80;;;2.20;;
15317;SDS011;7759;52.528;13.346;2023-07-28T14:18:46;1.85;;;1.55;;
15317;SDS011;7759;52.528;13.346;2023-07-28T14:21:13;2.17;;;1.65;;
15317;SDS011;7759;52.528;13.346;2023-07-28T14:23:39;2.75;;;1.60;;
15317;SDS011;7759;52.528;13.346;2023-07-28T14:26:05;1.60;;;1.50;;
15317;SDS011;7759;52.528;13.346;2023-07-28T14:28:31;3.05;;;1.60;;
15317;SDS011;7759;52.528;13.346;2023-07-28T14:30:57;1.42;;;1.33;;
15317;SDS011;7759;52.528;13.346;2023-07-28T14:33:22;1.60;;;1.50;;
15317;SDS011;7759;52.528;13.346;2023-07-28T14:35:49;2.30;;;1.35;;
15317;SDS011;7759;52.528;13.346;2023-07-28T14:38:15;1.50;;;1.40;;
15317;SDS011;7759;52.528;13.346;2023-07-28T14:40:42;1.70;;;1.50;;
15317;SDS011;7759;52.528;13.346;2023-07-28T14:43:13;6.28;;;5.68;;
15317;SDS011;7759;52.528;13.346;2023-07-28T14:45:39;3.90;;;2.05;;
15317;SDS011;7759;52.528;13.346;2023-07-28T14:48:05;3.17;;;2.88;;
15317;SDS011;7759;52.528;13.346;2023-07-28T14:50:31;3.38;;;1.95;;
15317;SDS011;7759;52.528;13.346;2023-07-28T14:52:58;3.13;;;1.90;;
15317;SDS011;7759;52.528;13.346;2023-07-28T14:55:24;3.35;;;1.90;;